createdAt,value
2024-03-14T00:00:50.579Z,100.00
2024-03-14T00:02:22.211Z,100.00
2024-03-14T00:03:57.000Z,100.00
2024-03-14T00:05:28.869Z,100.00
2024-03-14T00:07:00.473Z,100.00
2024-03-14T00:08:32.043Z,100.00
2024-03-14T00:10:05.998Z,100.00
2024-03-14T00:11:37.865Z,100.00
2024-03-14T00:13:09.492Z,100.00
2024-03-14T00:14:45.842Z,100.00
2024-03-14T00:16:18.037Z,100.00
2024-03-14T00:17:49.919Z,100.00
2024-03-14T00:19:21.553Z,100.00
2024-03-14T00:20:54.084Z,100.00
2024-03-14T00:22:26.468Z,100.00
2024-03-14T00:23:58.098Z,100.00
2024-03-14T00:25:29.797Z,100.00
2024-03-14T00:27:02.175Z,100.00
2024-03-14T00:28:34.794Z,100.00
2024-03-14T00:30:12.241Z,100.00
2024-03-14T00:31:44.491Z,100.00
2024-03-14T00:33:16.230Z,100.00
2024-03-14T00:34:48.403Z,100.00
2024-03-14T00:36:20.116Z,100.00
2024-03-14T00:37:52.630Z,100.00
2024-03-14T00:39:24.341Z,100.00
2024-03-14T00:40:55.926Z,100.00
2024-03-14T00:42:27.978Z,100.00
2024-03-14T00:44:00.269Z,100.00
2024-03-14T00:45:33.171Z,100.00
2024-03-14T00:47:06.305Z,100.00
2024-03-14T00:48:38.979Z,100.00
2024-03-14T00:50:11.542Z,100.00
2024-03-14T00:51:45.725Z,100.00
2024-03-14T00:53:17.528Z,100.00
2024-03-14T00:54:49.115Z,100.00
2024-03-14T00:56:22.014Z,100.00
2024-03-14T00:57:53.711Z,100.00
2024-03-14T00:59:27.914Z,100.00
2024-03-14T01:01:00.716Z,100.00
2024-03-14T01:02:32.428Z,100.00
2024-03-14T01:04:05.463Z,100.00
2024-03-14T01:05:38.881Z,100.00
2024-03-14T01:07:10.523Z,100.00
2024-03-14T01:08:42.116Z,100.00
2024-03-14T01:10:14.747Z,100.00
2024-03-14T01:11:46.425Z,100.00
2024-03-14T01:13:18.057Z,100.00
2024-03-14T01:14:49.771Z,100.00
2024-03-14T01:16:21.475Z,100.00
2024-03-14T01:17:53.160Z,100.00
2024-03-14T01:19:26.281Z,100.00
2024-03-14T01:20:58.099Z,100.00
2024-03-14T01:22:30.347Z,100.00
2024-03-14T01:24:01.953Z,100.00
2024-03-14T01:25:33.621Z,100.00
2024-03-14T01:27:05.612Z,100.00
2024-03-14T01:28:37.282Z,100.00
2024-03-14T01:30:13.632Z,100.00
2024-03-14T01:31:47.155Z,100.00
2024-03-14T01:33:18.843Z,100.00
2024-03-14T01:34:50.632Z,100.00
2024-03-14T01:36:22.384Z,100.00
2024-03-14T01:37:54.107Z,100.00
2024-03-14T01:39:25.807Z,100.00
2024-03-14T01:40:57.479Z,100.00
2024-03-14T01:42:29.620Z,100.00
2024-03-14T01:44:01.525Z,100.00
2024-03-14T01:45:33.577Z,100.00
2024-03-14T01:47:06.893Z,100.00
2024-03-14T01:48:38.783Z,100.00
2024-03-14T01:50:12.283Z,100.00
2024-03-14T01:51:45.295Z,100.00
2024-03-14T01:53:16.905Z,100.00
2024-03-14T01:54:50.154Z,100.00
2024-03-14T01:56:25.890Z,100.00
2024-03-14T01:57:59.649Z,100.00
2024-03-14T01:59:31.539Z,100.00
2024-03-14T02:01:04.779Z,100.00
2024-03-14T02:02:36.646Z,100.00
2024-03-14T02:04:19.118Z,100.00
2024-03-14T02:05:58.242Z,100.00
2024-03-14T02:07:36.778Z,100.00
2024-03-14T02:09:09.314Z,100.00
2024-03-14T02:12:17.652Z,100.00
2024-03-14T02:13:49.988Z,100.00
2024-03-14T02:15:21.793Z,100.00
2024-03-14T02:16:53.521Z,100.00
2024-03-14T02:18:25.215Z,100.00
2024-03-14T02:19:57.265Z,100.00
2024-03-14T02:21:29.080Z,100.00
2024-03-14T02:23:00.857Z,100.00
2024-03-14T02:24:32.488Z,100.00
2024-03-14T02:26:04.237Z,100.00
2024-03-14T02:27:36.431Z,100.00
2024-03-14T02:29:10.920Z,100.00
2024-03-14T02:30:43.117Z,100.00
2024-03-14T02:32:14.872Z,100.00
2024-03-14T02:33:46.564Z,100.00
2024-03-14T02:35:18.243Z,100.00
2024-03-14T02:36:49.873Z,100.00
2024-03-14T02:38:21.898Z,100.00
2024-03-14T02:39:54.493Z,100.00
2024-03-14T02:41:27.060Z,100.00
2024-03-14T02:42:58.712Z,100.00
2024-03-14T02:44:30.346Z,100.00
2024-03-14T02:46:01.962Z,100.00
2024-03-14T02:47:33.776Z,100.00
2024-03-14T02:49:06.229Z,100.00
2024-03-14T02:50:37.851Z,100.00
2024-03-14T02:52:09.521Z,100.00
2024-03-14T02:53:41.125Z,100.00
2024-03-14T02:55:14.081Z,100.00
2024-03-14T02:56:48.601Z,100.00
2024-03-14T02:58:20.424Z,100.00
2024-03-14T02:59:53.581Z,100.00
2024-03-14T03:01:25.244Z,100.00
2024-03-14T03:02:56.925Z,100.00
2024-03-14T03:04:31.725Z,100.00
2024-03-14T03:06:06.504Z,100.00
2024-03-14T03:07:38.389Z,100.00
2024-03-14T03:09:11.202Z,100.00
2024-03-14T03:10:43.178Z,100.00
2024-03-14T03:12:14.965Z,100.00
2024-03-14T03:13:46.660Z,100.00
2024-03-14T03:15:18.593Z,100.00
2024-03-14T03:16:50.548Z,100.00
2024-03-14T03:18:22.506Z,100.00
2024-03-14T03:19:54.634Z,100.00
2024-03-14T03:21:26.671Z,100.00
2024-03-14T03:23:07.520Z,100.00
2024-03-14T03:24:39.218Z,100.00
2024-03-14T03:26:10.848Z,100.00
2024-03-14T03:27:43.750Z,100.00
2024-03-14T03:29:15.457Z,100.00
2024-03-14T03:30:47.082Z,100.00
2024-03-14T03:32:21.043Z,100.00
2024-03-14T03:33:52.797Z,100.00
2024-03-14T03:35:26.683Z,100.00
2024-03-14T03:36:58.674Z,100.00
2024-03-14T03:38:30.296Z,100.00
2024-03-14T03:40:02.156Z,100.00
2024-03-14T03:41:33.758Z,100.00
2024-03-14T03:43:05.581Z,100.00
2024-03-14T03:44:37.191Z,100.00
2024-03-14T03:46:08.827Z,100.00
2024-03-14T03:47:43.640Z,100.00
2024-03-14T03:49:16.207Z,100.00
2024-03-14T03:50:50.068Z,100.00
2024-03-14T03:52:21.726Z,100.00
2024-03-14T03:53:53.599Z,100.00
2024-03-14T03:55:26.342Z,100.00
2024-03-14T03:56:59.343Z,100.00
2024-03-14T03:58:33.764Z,100.00
2024-03-14T04:00:25.931Z,100.00
2024-03-14T04:01:57.580Z,100.00
2024-03-14T04:03:29.605Z,100.00
2024-03-14T04:05:01.329Z,100.00
2024-03-14T04:06:34.473Z,100.00
2024-03-14T04:08:07.023Z,100.00
2024-03-14T04:09:38.718Z,100.00
2024-03-14T04:11:12.789Z,100.00
2024-03-14T04:12:45.829Z,100.00
2024-03-14T04:14:17.457Z,100.00
2024-03-14T04:15:49.160Z,100.00
2024-03-14T04:17:21.083Z,100.00
2024-03-14T04:18:52.717Z,100.00
2024-03-14T04:20:27.618Z,100.00
2024-03-14T04:22:00.065Z,100.00
2024-03-14T04:23:31.691Z,100.00
2024-03-14T04:25:11.689Z,100.00
2024-03-14T04:26:44.803Z,100.00
2024-03-14T04:28:19.651Z,100.00
2024-03-14T04:29:51.665Z,100.00
2024-03-14T04:31:23.344Z,100.00
2024-03-14T04:32:55.257Z,100.00
2024-03-14T04:34:26.940Z,100.00
2024-03-14T04:35:58.565Z,100.00
2024-03-14T04:37:30.460Z,100.00
2024-03-14T04:39:02.723Z,100.00
2024-03-14T04:40:34.379Z,100.00
2024-03-14T04:42:06.809Z,100.00
2024-03-14T04:43:39.340Z,100.00
2024-03-14T04:45:14.218Z,100.00
2024-03-14T04:46:46.273Z,100.00
2024-03-14T04:48:18.050Z,100.00
2024-03-14T04:49:49.769Z,100.00
2024-03-14T04:51:21.577Z,100.00
2024-03-14T04:52:53.332Z,100.00
2024-03-14T04:54:25.481Z,100.00
2024-03-14T04:55:57.125Z,100.00
2024-03-14T04:57:28.865Z,100.00
2024-03-14T04:59:02.377Z,100.00
2024-03-14T05:00:34.237Z,100.00
2024-03-14T05:02:06.133Z,100.00
2024-03-14T05:03:38.936Z,100.00
2024-03-14T05:05:11.347Z,100.00
2024-03-14T05:06:46.502Z,100.00
2024-03-14T05:08:18.080Z,100.00
2024-03-14T05:09:50.316Z,100.00
2024-03-14T05:11:25.140Z,100.00
2024-03-14T05:12:58.327Z,100.00
2024-03-14T05:14:29.951Z,100.00
2024-03-14T05:16:01.711Z,100.00
2024-03-14T05:17:33.410Z,100.00
2024-03-14T05:19:05.818Z,100.00
2024-03-14T05:20:37.767Z,100.00
2024-03-14T05:22:09.471Z,100.00
2024-03-14T05:23:41.189Z,100.00
2024-03-14T05:25:13.918Z,100.00
2024-03-14T05:26:46.248Z,100.00
2024-03-14T05:28:17.862Z,100.00
2024-03-14T05:29:49.573Z,100.00
2024-03-14T05:31:21.228Z,100.00
2024-03-14T05:32:53.067Z,100.00
2024-03-14T05:34:24.920Z,100.00
2024-03-14T05:35:56.575Z,100.00
2024-03-14T05:37:28.506Z,100.00
2024-03-14T05:39:00.179Z,100.00
2024-03-14T05:40:32.080Z,100.00
2024-03-14T05:42:04.913Z,100.00
2024-03-14T05:43:37.199Z,100.00
2024-03-14T05:45:10.287Z,100.00
2024-03-14T05:46:42.348Z,100.00
2024-03-14T05:48:14.124Z,100.00
2024-03-14T05:49:45.866Z,100.00
2024-03-14T05:51:19.310Z,100.00
2024-03-14T05:52:53.189Z,100.00
2024-03-14T05:54:25.170Z,100.00
2024-03-14T05:55:56.878Z,100.00
2024-03-14T05:57:28.675Z,100.00
2024-03-14T05:59:00.686Z,100.00
2024-03-14T06:00:33.469Z,100.00
2024-03-14T06:02:05.536Z,100.00
2024-03-14T06:03:37.323Z,100.00
2024-03-14T06:05:09.205Z,100.00
2024-03-14T06:06:41.025Z,100.00
2024-03-14T06:08:12.755Z,100.00
2024-03-14T06:09:44.733Z,100.00
2024-03-14T06:11:16.390Z,100.00
2024-03-14T06:12:48.016Z,100.00
2024-03-14T06:14:20.125Z,100.00
2024-03-14T06:15:51.900Z,100.00
2024-03-14T06:17:23.584Z,100.00
2024-03-14T06:18:55.925Z,100.00
2024-03-14T06:20:28.243Z,100.00
2024-03-14T06:22:00.003Z,100.00
2024-03-14T06:23:31.665Z,100.00
2024-03-14T06:25:03.601Z,100.00
2024-03-14T06:26:38.283Z,100.00
2024-03-14T06:28:09.860Z,100.00
2024-03-14T06:29:44.939Z,100.00
2024-03-14T06:31:16.795Z,100.00
2024-03-14T06:32:48.772Z,100.00
2024-03-14T06:34:20.748Z,100.00
2024-03-14T06:35:52.402Z,100.00
2024-03-14T06:37:26.832Z,100.00
2024-03-14T06:38:58.500Z,100.00
2024-03-14T06:40:33.176Z,100.00
2024-03-14T06:42:05.588Z,100.00
2024-03-14T06:43:37.214Z,100.00
2024-03-14T06:45:12.156Z,100.00
2024-03-14T06:46:44.330Z,100.00
2024-03-14T06:48:16.817Z,100.00
2024-03-14T06:49:48.456Z,100.00
2024-03-14T06:51:20.535Z,100.00
2024-03-14T06:52:52.132Z,100.00
2024-03-14T06:54:23.822Z,100.00
2024-03-14T06:55:56.994Z,100.00
2024-03-14T06:57:28.712Z,100.00
2024-03-14T06:59:00.338Z,100.00
2024-03-14T07:00:32.073Z,100.00
2024-03-14T07:02:03.748Z,100.00
2024-03-14T07:03:35.705Z,100.00
2024-03-14T07:05:11.255Z,100.00
2024-03-14T07:06:43.433Z,100.00
2024-03-14T07:08:15.432Z,100.00
2024-03-14T07:09:47.429Z,100.00
2024-03-14T07:11:19.122Z,100.00
2024-03-14T07:12:51.021Z,100.00
2024-03-14T07:14:24.195Z,100.00
2024-03-14T07:15:56.273Z,100.00
2024-03-14T07:17:28.472Z,100.00
2024-03-14T07:19:00.356Z,100.00
2024-03-14T07:20:37.086Z,100.00
2024-03-14T07:22:10.823Z,100.00
2024-03-14T07:23:42.807Z,100.00
2024-03-14T07:25:14.628Z,100.00
2024-03-14T07:26:47.510Z,100.00
2024-03-14T07:28:20.231Z,100.00
2024-03-14T07:29:52.779Z,100.00
2024-03-14T07:31:24.449Z,100.00
2024-03-14T07:32:56.173Z,100.00
2024-03-14T07:34:27.891Z,100.00
2024-03-14T07:35:59.927Z,100.00
2024-03-14T07:37:31.621Z,100.00
2024-03-14T07:39:03.507Z,100.00
2024-03-14T07:40:35.258Z,100.00
2024-03-14T07:42:07.585Z,100.00
2024-03-14T07:43:42.561Z,100.00
2024-03-14T07:45:20.691Z,100.00
2024-03-14T07:46:52.746Z,100.00
2024-03-14T07:48:24.495Z,100.00
2024-03-14T07:49:56.233Z,100.00
2024-03-14T07:51:27.946Z,100.00
2024-03-14T07:53:01.042Z,100.00
2024-03-14T07:54:33.274Z,100.00
2024-03-14T07:56:10.486Z,100.00
2024-03-14T07:57:42.381Z,100.00
2024-03-14T07:59:14.123Z,100.00
2024-03-14T08:00:47.387Z,99.73
2024-03-14T08:02:22.195Z,99.56
2024-03-14T08:03:54.000Z,99.19
2024-03-14T08:05:27.081Z,98.96
2024-03-14T08:07:00.650Z,98.34
2024-03-14T08:08:34.090Z,97.41
2024-03-14T08:10:09.658Z,96.86
2024-03-14T08:11:42.412Z,96.99
2024-03-14T08:13:24.823Z,96.26
2024-03-14T08:14:59.892Z,97.16
2024-03-14T08:16:32.519Z,96.72
2024-03-14T08:18:06.066Z,96.07
2024-03-14T08:19:38.389Z,94.85
2024-03-14T08:21:14.093Z,94.31
2024-03-14T08:22:46.016Z,94.40
2024-03-14T08:24:20.254Z,94.36
2024-03-14T08:25:51.941Z,93.53
2024-03-14T08:27:26.023Z,93.42
2024-03-14T08:28:57.644Z,92.52
2024-03-14T08:30:29.525Z,90.88
2024-03-14T08:32:01.203Z,89.49
2024-03-14T08:33:33.977Z,89.73
2024-03-14T08:35:06.683Z,89.59
2024-03-14T08:36:44.341Z,87.81
2024-03-14T08:38:16.248Z,84.69
2024-03-14T08:39:47.936Z,82.82
2024-03-14T08:41:19.609Z,81.86
2024-03-14T08:42:54.043Z,80.32
2024-03-14T08:44:27.594Z,79.65
2024-03-14T08:45:59.239Z,78.32
2024-03-14T08:47:31.916Z,77.30
2024-03-14T08:49:03.789Z,76.91
2024-03-14T08:50:36.504Z,76.59
2024-03-14T08:52:08.368Z,76.31
2024-03-14T08:53:58.784Z,75.64
2024-03-14T08:55:38.209Z,74.37
2024-03-14T08:57:10.582Z,74.15
2024-03-14T08:58:42.282Z,72.16
2024-03-14T09:00:19.033Z,70.85
2024-03-14T09:01:51.566Z,70.05
2024-03-14T09:03:23.807Z,69.21
2024-03-14T09:04:58.171Z,69.77
2024-03-14T09:06:32.243Z,68.98
2024-03-14T09:08:04.213Z,69.80
2024-03-14T09:09:36.033Z,69.07
2024-03-14T09:11:08.366Z,68.82
2024-03-14T09:12:40.121Z,69.26
2024-03-14T09:14:11.916Z,68.06
2024-03-14T09:15:44.121Z,70.08
2024-03-14T09:17:16.223Z,70.81
2024-03-14T09:18:47.820Z,69.93
2024-03-14T09:20:21.949Z,69.09
2024-03-14T09:21:53.658Z,68.99
2024-03-14T09:23:30.500Z,70.32
2024-03-14T09:25:02.854Z,69.34
2024-03-14T09:26:35.640Z,70.10
2024-03-14T09:28:10.145Z,69.05
2024-03-14T09:29:41.761Z,68.75
2024-03-14T09:31:13.421Z,69.40
2024-03-14T09:32:45.194Z,71.26
2024-03-14T09:34:18.913Z,70.83
2024-03-14T09:35:50.519Z,70.45
2024-03-14T09:37:26.360Z,70.20
2024-03-14T09:38:58.127Z,67.99
2024-03-14T09:40:31.038Z,68.24
2024-03-14T09:42:02.751Z,67.05
2024-03-14T09:43:34.445Z,66.59
2024-03-14T09:45:14.040Z,64.95
2024-03-14T09:46:55.778Z,63.34
2024-03-14T09:48:29.555Z,62.88
2024-03-14T09:50:07.991Z,64.11
2024-03-14T09:51:39.907Z,63.69
2024-03-14T09:53:16.076Z,62.67
2024-03-14T09:54:50.904Z,62.21
2024-03-14T09:56:22.740Z,62.22
2024-03-14T09:57:57.006Z,61.85
2024-03-14T09:59:28.881Z,60.47
2024-03-14T10:01:05.247Z,59.38
2024-03-14T10:02:37.087Z,61.32
2024-03-14T10:04:14.108Z,62.40
2024-03-14T10:05:46.038Z,62.47
2024-03-14T10:07:17.707Z,63.53
2024-03-14T10:08:50.102Z,63.84
2024-03-14T10:10:23.208Z,65.34
2024-03-14T10:12:02.769Z,65.76
2024-03-14T10:13:34.777Z,63.76
2024-03-14T10:15:17.692Z,63.65
2024-03-14T10:16:52.464Z,64.27
2024-03-14T10:18:28.272Z,63.99
2024-03-14T10:20:00.739Z,62.53
2024-03-14T10:21:32.730Z,60.99
2024-03-14T10:23:04.517Z,60.74
2024-03-14T10:24:36.184Z,60.68
2024-03-14T10:26:09.140Z,62.90
2024-03-14T10:27:53.656Z,62.49
2024-03-14T10:29:37.879Z,62.09
2024-03-14T10:31:09.702Z,62.83
2024-03-14T10:32:41.750Z,60.01
2024-03-14T10:34:15.537Z,58.96
2024-03-14T10:35:47.988Z,58.99
2024-03-14T10:37:23.585Z,56.62
2024-03-14T10:38:58.343Z,55.58
2024-03-14T10:40:30.634Z,56.37
2024-03-14T10:42:03.491Z,56.41
2024-03-14T10:43:42.524Z,56.75
2024-03-14T10:45:14.905Z,54.93
2024-03-14T10:46:51.401Z,54.34
2024-03-14T10:48:24.469Z,52.18
2024-03-14T10:49:57.602Z,53.13
2024-03-14T10:51:30.552Z,50.67
2024-03-14T10:53:03.146Z,51.02
2024-03-14T10:54:35.514Z,50.82
2024-03-14T10:56:17.008Z,50.36
2024-03-14T10:57:52.957Z,53.14
2024-03-14T10:59:27.117Z,52.01
2024-03-14T11:01:00.865Z,52.32
2024-03-14T11:02:32.863Z,53.90
2024-03-14T11:04:11.383Z,52.92
2024-03-14T11:05:57.398Z,51.86
2024-03-14T11:07:29.682Z,49.98
2024-03-14T11:09:04.875Z,48.83
2024-03-14T11:10:37.791Z,46.24
2024-03-14T11:12:15.971Z,47.61
2024-03-14T11:13:51.285Z,45.05
2024-03-14T11:15:25.558Z,43.00
2024-03-14T11:17:01.606Z,42.53
2024-03-14T11:18:39.518Z,41.28
2024-03-14T11:20:19.433Z,42.28
2024-03-14T11:21:52.962Z,41.40
2024-03-14T11:23:29.679Z,40.84
2024-03-14T11:25:02.359Z,39.12
2024-03-14T11:26:36.180Z,38.45
2024-03-14T11:28:08.941Z,39.55
2024-03-14T11:29:42.348Z,40.17
2024-03-14T11:31:14.634Z,42.85
2024-03-14T11:32:59.499Z,39.94
2024-03-14T11:34:32.767Z,39.40
2024-03-14T11:36:06.243Z,39.05
2024-03-14T11:37:51.478Z,38.10
2024-03-14T11:39:26.946Z,43.22
2024-03-14T11:41:03.060Z,47.14
2024-03-14T11:42:35.807Z,49.55
2024-03-14T11:44:15.780Z,52.50
2024-03-14T11:45:50.329Z,52.48
2024-03-14T11:47:41.659Z,54.68
2024-03-14T11:49:17.794Z,53.89
2024-03-14T11:50:53.504Z,55.21
2024-03-14T11:52:25.305Z,53.72
2024-03-14T11:54:01.291Z,53.18
2024-03-14T11:55:33.933Z,53.24
2024-03-14T11:57:06.585Z,52.54
2024-03-14T11:58:42.111Z,52.34
2024-03-14T12:00:13.940Z,53.75
2024-03-14T12:01:51.072Z,53.50
2024-03-14T12:03:24.182Z,54.04
2024-03-14T12:04:57.712Z,54.11
2024-03-14T12:06:30.136Z,53.01
2024-03-14T12:08:05.245Z,53.82
2024-03-14T12:09:37.211Z,54.82
2024-03-14T12:11:10.771Z,53.80
2024-03-14T12:12:42.754Z,52.25
2024-03-14T12:14:21.435Z,53.01
2024-03-14T12:16:03.904Z,55.76
2024-03-14T12:17:36.078Z,55.79
2024-03-14T12:19:12.877Z,55.23
2024-03-14T12:20:48.207Z,55.43
2024-03-14T12:22:21.790Z,55.56
2024-03-14T12:23:56.163Z,54.58
2024-03-14T12:25:29.077Z,55.48
2024-03-14T12:27:04.437Z,55.80
2024-03-14T12:28:36.666Z,55.99
2024-03-14T12:30:11.227Z,54.72
2024-03-14T12:31:48.222Z,54.44
2024-03-14T12:33:20.071Z,55.06
2024-03-14T12:34:51.944Z,53.46
2024-03-14T12:36:24.814Z,53.77
2024-03-14T12:37:56.542Z,53.55
2024-03-14T12:39:30.052Z,53.34
2024-03-14T12:41:02.032Z,54.39
2024-03-14T12:42:33.995Z,55.26
2024-03-14T12:44:07.918Z,54.91
2024-03-14T12:45:39.787Z,53.15
2024-03-14T12:47:11.705Z,55.36
2024-03-14T12:48:43.636Z,56.42
2024-03-14T12:50:22.419Z,54.91
2024-03-14T12:51:58.227Z,54.77
2024-03-14T12:53:32.542Z,56.05
2024-03-14T12:55:14.954Z,55.20
2024-03-14T12:56:47.124Z,54.27
2024-03-14T12:58:23.594Z,55.18
2024-03-14T12:59:57.019Z,54.55
2024-03-14T13:01:33.013Z,54.14
2024-03-14T13:03:04.969Z,53.83
2024-03-14T13:04:40.187Z,53.96
2024-03-14T13:06:23.028Z,53.95
2024-03-14T13:08:08.516Z,53.97
2024-03-14T13:09:40.360Z,54.25
2024-03-14T13:11:19.915Z,54.04
2024-03-14T13:12:58.866Z,54.58
2024-03-14T13:14:30.549Z,54.45
2024-03-14T13:16:16.431Z,54.26
2024-03-14T13:17:55.366Z,53.87
2024-03-14T13:19:27.370Z,54.29
2024-03-14T13:20:59.305Z,53.91
2024-03-14T13:22:31.540Z,54.53
2024-03-14T13:24:05.119Z,55.25
2024-03-14T13:25:36.971Z,54.27
2024-03-14T13:27:12.268Z,53.51
2024-03-14T13:28:44.285Z,53.16
2024-03-14T13:30:16.065Z,52.83
2024-03-14T13:31:47.762Z,52.76
2024-03-14T13:33:21.359Z,53.28
2024-03-14T13:34:53.358Z,52.73
2024-03-14T13:36:26.389Z,52.28
2024-03-14T13:37:59.016Z,52.69
2024-03-14T13:39:37.847Z,51.98
2024-03-14T13:41:09.908Z,52.67
2024-03-14T13:42:42.633Z,55.53
2024-03-14T13:44:14.376Z,53.40
2024-03-14T13:45:46.474Z,52.07
2024-03-14T13:47:24.047Z,51.40
2024-03-14T13:49:10.348Z,53.15
2024-03-14T13:50:42.360Z,52.28
2024-03-14T13:52:15.317Z,47.44
2024-03-14T13:53:51.933Z,45.66
2024-03-14T13:55:29.914Z,46.30
2024-03-14T13:57:03.132Z,48.13
2024-03-14T13:58:39.705Z,49.81
2024-03-14T14:00:13.164Z,51.94
2024-03-14T14:01:48.690Z,52.05
2024-03-14T14:03:23.170Z,51.35
2024-03-14T14:04:55.538Z,52.20
2024-03-14T14:06:27.340Z,52.91
2024-03-14T14:08:01.747Z,54.97
2024-03-14T14:09:34.651Z,52.20
2024-03-14T14:11:08.430Z,52.24
2024-03-14T14:12:40.316Z,52.37
2024-03-14T14:14:15.393Z,53.71
2024-03-14T14:15:48.990Z,53.23
2024-03-14T14:17:21.008Z,53.70
2024-03-14T14:18:52.730Z,55.29
2024-03-14T14:20:25.014Z,54.94
2024-03-14T14:21:58.073Z,55.41
2024-03-14T14:23:30.181Z,54.92
2024-03-14T14:25:01.858Z,54.41
2024-03-14T14:26:33.850Z,54.15
2024-03-14T14:28:05.886Z,52.72
2024-03-14T14:29:39.215Z,52.74
2024-03-14T14:31:13.404Z,52.60
2024-03-14T14:32:47.950Z,52.81
2024-03-14T14:34:19.644Z,53.14
2024-03-14T14:35:51.333Z,53.31
2024-03-14T14:37:22.976Z,55.55
2024-03-14T14:39:00.865Z,53.33
2024-03-14T14:40:32.920Z,52.08
2024-03-14T14:42:04.953Z,52.24
2024-03-14T14:43:36.656Z,52.63
2024-03-14T14:45:08.851Z,51.62
2024-03-14T14:46:41.858Z,50.78
2024-03-14T14:48:13.699Z,53.17
2024-03-14T14:49:45.440Z,52.05
2024-03-14T14:51:18.052Z,52.26
2024-03-14T14:52:50.002Z,53.44
2024-03-14T14:54:23.203Z,52.32
2024-03-14T14:55:56.211Z,52.13
2024-03-14T14:57:27.950Z,51.88
2024-03-14T14:58:59.711Z,52.00
2024-03-14T15:00:32.731Z,52.16
2024-03-14T15:02:06.262Z,52.27
2024-03-14T15:03:38.116Z,53.13
2024-03-14T15:05:11.401Z,52.38
2024-03-14T15:06:43.293Z,52.77
2024-03-14T15:08:15.173Z,52.38
2024-03-14T15:09:47.158Z,52.16
2024-03-14T15:11:20.651Z,51.64
2024-03-14T15:12:57.785Z,52.14
2024-03-14T15:14:32.707Z,52.16
2024-03-14T15:16:08.509Z,52.05
2024-03-14T15:17:41.301Z,52.84
2024-03-14T15:19:13.244Z,53.56
2024-03-14T15:20:48.823Z,53.65
2024-03-14T15:22:20.938Z,55.45
2024-03-14T15:23:52.637Z,54.63
2024-03-14T15:25:26.129Z,55.34
2024-03-14T15:26:59.204Z,55.10
2024-03-14T15:28:31.760Z,55.04
2024-03-14T15:30:03.835Z,56.05
2024-03-14T15:31:35.557Z,55.21
2024-03-14T15:33:07.370Z,55.48
2024-03-14T15:34:40.337Z,56.57
2024-03-14T15:36:16.632Z,55.24
2024-03-14T15:37:50.619Z,54.58
2024-03-14T15:39:22.321Z,54.72
2024-03-14T15:40:54.095Z,53.91
2024-03-14T15:42:25.743Z,53.68
2024-03-14T15:43:58.414Z,54.56
2024-03-14T15:45:30.128Z,55.53
2024-03-14T15:47:02.291Z,57.19
2024-03-14T15:48:34.043Z,55.93
2024-03-14T15:50:09.399Z,54.92
2024-03-14T15:51:41.248Z,56.59
2024-03-14T15:53:12.977Z,55.38
2024-03-14T15:54:44.903Z,56.00
2024-03-14T15:56:17.382Z,56.49
2024-03-14T15:57:49.308Z,56.82
2024-03-14T15:59:21.077Z,56.10
2024-03-14T16:00:53.628Z,58.74
2024-03-14T16:02:25.362Z,58.65
2024-03-14T16:03:57.238Z,59.30
2024-03-14T16:05:32.157Z,60.35
2024-03-14T16:07:04.150Z,59.36
2024-03-14T16:08:48.754Z,57.50
2024-03-14T16:10:26.874Z,56.76
2024-03-14T16:11:58.574Z,55.84
2024-03-14T16:13:30.307Z,55.32
2024-03-14T16:15:02.710Z,55.21
2024-03-14T16:16:36.125Z,55.44
2024-03-14T16:18:08.011Z,55.30
2024-03-14T16:19:39.865Z,54.81
2024-03-14T16:21:18.178Z,56.72
2024-03-14T16:22:51.090Z,58.02
2024-03-14T16:24:23.929Z,56.38
2024-03-14T16:25:56.328Z,56.41
2024-03-14T16:27:28.195Z,56.23
2024-03-14T16:28:59.942Z,56.24
2024-03-14T16:30:32.012Z,57.34
2024-03-14T16:32:05.391Z,57.73
2024-03-14T16:33:38.025Z,56.96
2024-03-14T16:35:16.934Z,56.72
2024-03-14T16:36:48.980Z,56.80
2024-03-14T16:38:20.701Z,57.59
2024-03-14T16:39:52.544Z,59.03
2024-03-14T16:41:24.897Z,60.30
2024-03-14T16:42:56.770Z,59.12
2024-03-14T16:44:30.934Z,57.90
2024-03-14T16:46:04.586Z,57.61
2024-03-14T16:47:36.334Z,57.47
2024-03-14T16:49:09.384Z,57.77
2024-03-14T16:50:41.439Z,57.98
2024-03-14T16:52:13.203Z,59.08
2024-03-14T16:53:44.827Z,58.18
2024-03-14T16:55:16.850Z,57.88
2024-03-14T16:56:49.335Z,58.21
2024-03-14T16:58:21.146Z,60.54
2024-03-14T16:59:54.658Z,59.17
2024-03-14T17:01:29.428Z,60.90
2024-03-14T17:03:03.644Z,60.57
2024-03-14T17:04:35.387Z,60.82
2024-03-14T17:06:07.241Z,62.24
2024-03-14T17:07:39.245Z,61.22
2024-03-14T17:09:14.396Z,62.08
2024-03-14T17:10:47.334Z,63.64
2024-03-14T17:12:19.049Z,63.81
2024-03-14T17:13:51.873Z,64.53
2024-03-14T17:15:23.775Z,64.04
2024-03-14T17:17:02.223Z,64.54
2024-03-14T17:18:39.870Z,64.34
2024-03-14T17:20:18.614Z,64.58
2024-03-14T17:21:51.281Z,65.09
2024-03-14T17:23:23.989Z,65.24
2024-03-14T17:24:55.917Z,65.31
2024-03-14T17:26:28.055Z,65.40
2024-03-14T17:28:00.043Z,66.10
2024-03-14T17:29:35.050Z,66.05
2024-03-14T17:31:07.021Z,66.45
2024-03-14T17:32:40.062Z,66.37
2024-03-14T17:34:12.026Z,66.86
2024-03-14T17:35:43.720Z,67.09
2024-03-14T17:37:16.381Z,67.85
2024-03-14T17:38:48.799Z,68.84
2024-03-14T17:40:20.815Z,68.98
2024-03-14T17:41:56.303Z,69.37
2024-03-14T17:43:30.111Z,70.38
2024-03-14T17:45:01.837Z,70.61
2024-03-14T17:46:33.587Z,70.50
2024-03-14T17:48:06.710Z,70.30
2024-03-14T17:49:39.272Z,70.06
2024-03-14T17:51:11.096Z,70.45
2024-03-14T17:52:44.375Z,70.35
2024-03-14T17:54:18.820Z,70.63
2024-03-14T17:55:51.851Z,70.55
2024-03-14T17:57:23.667Z,72.45
2024-03-14T17:58:56.409Z,73.06
2024-03-14T18:00:31.063Z,73.00
2024-03-14T18:02:05.644Z,74.19
2024-03-14T18:03:37.327Z,74.26
2024-03-14T18:05:14.079Z,74.57
2024-03-14T18:06:47.834Z,74.05
2024-03-14T18:08:19.545Z,75.23
2024-03-14T18:09:53.180Z,75.24
2024-03-14T18:11:24.998Z,75.42
2024-03-14T18:12:56.769Z,75.50
2024-03-14T18:14:29.566Z,75.77
2024-03-14T18:16:01.382Z,75.50
2024-03-14T18:17:33.425Z,76.13
2024-03-14T18:19:05.541Z,76.29
2024-03-14T18:20:37.757Z,76.23
2024-03-14T18:22:09.466Z,76.75
2024-03-14T18:23:41.301Z,77.72
2024-03-14T18:25:20.752Z,77.46
2024-03-14T18:26:52.665Z,77.04
2024-03-14T18:28:24.739Z,77.92
2024-03-14T18:29:56.408Z,77.93
2024-03-14T18:31:32.215Z,78.00
2024-03-14T18:33:04.103Z,77.04
2024-03-14T18:34:35.921Z,77.67
2024-03-14T18:36:09.266Z,78.54
2024-03-14T18:37:40.942Z,78.15
2024-03-14T18:39:15.610Z,78.16
2024-03-14T18:40:48.988Z,78.97
2024-03-14T18:42:20.848Z,79.25
2024-03-14T18:43:53.899Z,79.26
2024-03-14T18:45:25.762Z,79.09
2024-03-14T18:46:58.006Z,79.33
2024-03-14T18:48:29.874Z,79.60
2024-03-14T18:50:02.540Z,79.43
2024-03-14T18:51:34.525Z,79.52
2024-03-14T18:53:13.946Z,80.06
2024-03-14T18:54:50.412Z,79.80
2024-03-14T18:56:22.230Z,79.79
2024-03-14T18:57:54.152Z,79.93
2024-03-14T18:59:25.949Z,80.23
2024-03-14T19:00:58.332Z,80.26
2024-03-14T19:02:32.134Z,80.47
2024-03-14T19:04:07.443Z,80.72
2024-03-14T19:05:39.116Z,80.89
2024-03-14T19:07:10.962Z,81.07
2024-03-14T19:08:42.633Z,81.36
2024-03-14T19:10:15.059Z,81.08
2024-03-14T19:11:47.019Z,81.35
2024-03-14T19:13:18.790Z,81.86
2024-03-14T19:14:50.559Z,81.90
2024-03-14T19:16:22.247Z,82.50
2024-03-14T19:17:54.094Z,82.16
2024-03-14T19:19:26.237Z,82.22
2024-03-14T19:20:57.928Z,82.24
2024-03-14T19:22:29.663Z,82.43
2024-03-14T19:24:01.469Z,83.14
2024-03-14T19:25:33.133Z,83.14
2024-03-14T19:27:06.746Z,83.05
2024-03-14T19:28:41.876Z,83.23
2024-03-14T19:30:17.686Z,83.54
2024-03-14T19:31:50.793Z,83.08
2024-03-14T19:33:22.628Z,83.69
2024-03-14T19:34:55.166Z,84.39
2024-03-14T19:36:26.981Z,83.96
2024-03-14T19:37:59.080Z,83.87
2024-03-14T19:39:31.859Z,83.84
2024-03-14T19:41:04.863Z,84.38
2024-03-14T19:42:37.085Z,84.62
2024-03-14T19:44:08.865Z,84.28
2024-03-14T19:45:41.040Z,85.61
2024-03-14T19:47:12.980Z,85.27